Stafford Heights, Queensland

1:11 AM AEST on September 18, 2014 (GMT +1000)
Everton Park | Change Station
CLOSE
Current Station
Personal Weather Station
Location: Everton Park, QUEENSLAND
Elevation: 203 ft
Nearby Weather Stations

Elev 203 ft 27.40 °S, 153.00 °E | Updated 6 seconds ago

Clear
Clear
64.6 °F
Feels Like 64.6 °F
N
0.0
Wind Variable Wind from North
Gusts 2.0 mph

Today
High -- | Low -- °F
--% Chance of Precip.
Yesterday
High -- | Low -- °F
Precip. -- in
5:42 AM 5:42 PM
Waning Crescent, 35% visible
Pressure 29.98 in
Visibility -9999.0 miles
Clouds
Dew Point 40 °F
Humidity 41%
Rainfall 0.00 in
Snow Depth Not available.
UV Not available.
Pollen Not available.
Air Quality Not available.
Flu Activity Not available.
METAR YBBN 171500Z 19006KT CAVOK 18/02 Q1015 NOSIG

More Conditions Fewer Conditions

Pressure 29.98 in
Visibility -9999.0 miles
Clouds
Dew Point 40 °F
Humidity 41%
Rainfall 0.00 in
Snow Depth Not available.
UV Not available.
Pollen Not available.
Air Quality Not available.
Flu Activity Not available.
METAR YBBN 171500Z 19006KT CAVOK 18/02 Q1015 NOSIG

More Conditions Fewer Conditions

10-Day Weather Forecast

Almanac

Astronomy

Sep. 18, 2014 Rise Set
Actual Time 5:42 AM AEST 5:42 PM AEST
Civil Twilight 5:19 AM AEST 6:05 PM AEST
Nautical Twilight 4:52 AM AEST 6:32 PM AEST
Astronomical Twilight 4:25 AM AEST 6:59 PM AEST
Moon 1:31 AM AEST (9/18) 12:37 PM AEST (9/18)
Length of Visible Light 12h 45m
Length of Day
11h 59m
Tomorrow will be 1m 36s longer.
Waning Crescent, 35% of the Moon is Illuminated
Sep 17
Waning Crescent
Sep 24
New
Oct 1
First Quarter
Oct 8
Full
Oct 15
Last Quarter

Yesterday's Extremes

Country Highs Country Lows

Community

WunderPhotos

Upload Photos

1,754,067 photos uploaded!

WunderBlogs® & News

Nearby

Snow Depth

Not available.

Earthquake Activity

City Distance Mag. Time & Date
No recent earthquake activity has been reported nearby.
Minimum magnitude displayed is 2.5.

Coastal Water Temperatures

Place Temperature
No Stations Reporting

Nearby Weather Stations